createdAt,value
2019-02-15T00:00:35.757Z,62.20
2019-02-15T00:03:06.763Z,61.17
2019-02-15T00:05:36.098Z,60.87
2019-02-15T00:08:05.465Z,61.50
2019-02-15T00:10:34.799Z,58.83
2019-02-15T00:13:13.055Z,61.67
2019-02-15T00:15:35.206Z,54.57
2019-02-15T00:18:22.416Z,61.63
2019-02-15T00:20:59.514Z,58.47
2019-02-15T00:23:28.878Z,51.83
2019-02-15T00:25:58.213Z,57.00
2019-02-15T00:28:27.578Z,59.00
2019-02-15T00:30:56.922Z,56.37
2019-02-15T00:33:26.327Z,58.63
2019-02-15T00:35:56.111Z,48.67
2019-02-15T00:38:25.476Z,42.57
2019-02-15T00:40:54.817Z,41.80
2019-02-15T00:43:24.179Z,50.93
2019-02-15T00:45:57.532Z,55.47
2019-02-15T00:48:28.461Z,48.47
2019-02-15T00:51:02.469Z,44.07
2019-02-15T00:53:33.471Z,39.53
2019-02-15T00:56:13.518Z,42.80
2019-02-15T00:58:47.473Z,41.33
2019-02-15T01:01:18.441Z,38.23
2019-02-15T01:03:52.417Z,35.73
2019-02-15T01:06:38.394Z,38.70
2019-02-15T01:09:09.397Z,44.23
2019-02-15T01:11:46.326Z,40.87
2019-02-15T01:14:15.693Z,37.73
2019-02-15T01:16:45.018Z,38.63
2019-02-15T01:19:14.397Z,47.50
2019-02-15T01:21:43.732Z,39.47
2019-02-15T01:24:13.101Z,37.57
2019-02-15T01:26:44.103Z,41.07
2019-02-15T01:29:24.115Z,46.03
2019-02-15T01:32:06.786Z,50.13
2019-02-15T01:34:54.160Z,41.63
2019-02-15T01:37:25.133Z,39.67
2019-02-15T01:40:12.902Z,57.40
2019-02-15T01:42:43.878Z,47.33
2019-02-15T01:45:24.172Z,35.00
2019-02-15T01:47:53.500Z,40.40
2019-02-15T01:50:22.870Z,37.30
2019-02-15T01:52:52.206Z,38.40
2019-02-15T01:55:21.963Z,39.33
2019-02-15T01:57:51.324Z,34.93
2019-02-15T02:00:22.587Z,39.50
2019-02-15T02:02:52.296Z,35.40
2019-02-15T02:05:21.933Z,35.80
2019-02-15T02:07:51.310Z,32.20
2019-02-15T02:10:20.643Z,35.80
2019-02-15T02:12:50.174Z,36.60
2019-02-15T02:15:19.580Z,38.33
2019-02-15T02:17:49.293Z,31.77
2019-02-15T02:20:18.626Z,33.90
2019-02-15T02:22:47.994Z,39.27
2019-02-15T02:25:17.328Z,35.93
2019-02-15T02:27:46.684Z,36.43
2019-02-15T02:30:16.023Z,38.40
2019-02-15T02:32:45.383Z,36.70
2019-02-15T02:35:14.717Z,40.87
2019-02-15T02:37:44.084Z,37.73
2019-02-15T02:40:13.427Z,43.97
2019-02-15T02:42:42.787Z,41.63
2019-02-15T02:45:12.127Z,36.50
2019-02-15T02:47:41.504Z,43.20
2019-02-15T02:50:10.834Z,33.87
2019-02-15T02:52:40.199Z,40.63
2019-02-15T02:55:09.536Z,34.97
2019-02-15T02:57:38.909Z,30.07
2019-02-15T03:00:08.750Z,39.57
2019-02-15T03:02:38.116Z,35.87
2019-02-15T03:05:07.446Z,35.93
2019-02-15T03:07:36.816Z,42.43
2019-02-15T03:10:06.883Z,39.17
2019-02-15T03:12:36.250Z,41.97
2019-02-15T03:15:06.121Z,44.40
2019-02-15T03:17:35.487Z,46.97
2019-02-15T03:20:06.363Z,43.50
2019-02-15T03:22:35.742Z,39.83
2019-02-15T03:25:05.090Z,42.30
2019-02-15T03:27:34.446Z,40.17
2019-02-15T03:30:04.656Z,52.03
2019-02-15T03:32:34.019Z,46.63
2019-02-15T03:35:03.945Z,48.23
2019-02-15T03:37:51.365Z,48.57
2019-02-15T03:40:25.037Z,45.83
2019-02-15T03:42:54.450Z,50.97
2019-02-15T03:45:24.380Z,48.60
2019-02-15T03:47:54.301Z,47.90
2019-02-15T03:50:23.729Z,50.43
2019-02-15T03:52:53.084Z,48.20
2019-02-15T03:55:22.567Z,59.53
2019-02-15T03:57:52.080Z,51.50
2019-02-15T04:00:21.448Z,49.83
2019-02-15T04:02:50.781Z,47.77
2019-02-15T04:05:20.142Z,45.10
2019-02-15T04:07:49.486Z,45.57
2019-02-15T04:10:18.929Z,46.90
2019-02-15T04:12:48.270Z,43.03
2019-02-15T04:15:17.653Z,42.47
2019-02-15T04:17:46.987Z,42.97
2019-02-15T04:20:16.345Z,41.30
2019-02-15T04:22:45.684Z,36.60
2019-02-15T04:25:15.051Z,40.50
2019-02-15T04:27:44.380Z,42.23
2019-02-15T04:30:13.814Z,37.37
2019-02-15T04:32:43.151Z,33.33
2019-02-15T04:35:12.522Z,36.27
2019-02-15T04:37:41.855Z,36.23
2019-02-15T04:40:11.214Z,39.07
2019-02-15T04:42:40.579Z,41.80
2019-02-15T04:45:09.958Z,44.60
2019-02-15T04:47:39.293Z,40.80
2019-02-15T04:50:09.192Z,43.27
2019-02-15T04:52:38.532Z,45.70
2019-02-15T04:55:07.896Z,43.47
2019-02-15T04:57:37.240Z,36.27
2019-02-15T05:00:08.453Z,42.47
2019-02-15T05:02:37.793Z,34.80
2019-02-15T05:05:07.735Z,38.20
2019-02-15T05:07:37.065Z,34.10
2019-02-15T05:10:06.448Z,34.90
2019-02-15T05:12:35.795Z,36.00
2019-02-15T05:15:07.302Z,33.70
2019-02-15T05:17:36.707Z,37.80
2019-02-15T05:20:07.829Z,35.17
2019-02-15T05:22:37.164Z,37.60
2019-02-15T05:25:06.548Z,49.27
2019-02-15T05:27:35.882Z,60.37
2019-02-15T05:30:06.996Z,84.83
2019-02-15T05:32:36.341Z,85.80
2019-02-15T05:35:06.088Z,82.87
2019-02-15T05:37:35.425Z,86.57
2019-02-15T05:40:05.830Z,81.13
2019-02-15T05:42:35.199Z,83.97
2019-02-15T05:45:05.410Z,86.30
2019-02-15T05:47:34.735Z,78.27
2019-02-15T05:50:04.749Z,64.20
2019-02-15T05:52:34.082Z,66.00
2019-02-15T05:55:03.801Z,63.37
2019-02-15T05:57:33.135Z,56.23
2019-02-15T06:00:02.545Z,52.50
2019-02-15T06:02:31.917Z,55.47
2019-02-15T06:05:01.371Z,50.10
2019-02-15T06:07:32.409Z,55.67
2019-02-15T06:10:01.821Z,57.50
2019-02-15T06:12:31.159Z,47.77
2019-02-15T06:15:00.677Z,49.20
2019-02-15T06:17:30.685Z,52.87
2019-02-15T06:20:03.950Z,46.43
2019-02-15T06:22:36.927Z,50.93
2019-02-15T06:25:07.876Z,61.53
2019-02-15T06:27:37.193Z,59.83
2019-02-15T06:30:08.280Z,59.10
2019-02-15T06:32:37.782Z,62.50
2019-02-15T06:35:07.317Z,86.47
2019-02-15T06:37:36.683Z,64.37
2019-02-15T06:40:06.450Z,59.97
2019-02-15T06:42:35.816Z,54.80
2019-02-15T06:45:06.294Z,48.63
2019-02-15T06:47:35.665Z,49.80
2019-02-15T06:50:06.854Z,49.20
2019-02-15T06:52:36.226Z,53.93
2019-02-15T06:55:06.502Z,42.73
2019-02-15T06:57:35.868Z,44.73
2019-02-15T07:00:12.858Z,45.43
2019-02-15T07:02:46.676Z,51.20
2019-02-15T07:05:28.083Z,50.53
2019-02-15T07:07:57.520Z,50.33
2019-02-15T07:10:26.866Z,51.27
2019-02-15T07:12:56.245Z,62.90
2019-02-15T07:15:33.398Z,65.97
2019-02-15T07:17:56.646Z,82.77
2019-02-15T07:20:26.029Z,108.90
2019-02-15T07:22:55.394Z,121.40
2019-02-15T07:25:25.160Z,126.17
2019-02-15T07:27:54.530Z,116.80
2019-02-15T07:30:23.866Z,91.97
2019-02-15T07:32:53.793Z,91.30
2019-02-15T07:35:23.148Z,73.37
2019-02-15T07:37:52.624Z,71.73
2019-02-15T07:40:22.542Z,62.60
2019-02-15T07:42:51.910Z,62.57
2019-02-15T07:45:22.652Z,59.80
2019-02-15T07:47:52.198Z,45.07
2019-02-15T07:50:21.528Z,42.13
2019-02-15T07:52:51.705Z,40.90
2019-02-15T07:55:21.032Z,42.43
2019-02-15T07:57:50.796Z,43.77
2019-02-15T08:00:20.130Z,36.83
2019-02-15T08:02:50.045Z,33.13
2019-02-15T08:05:19.384Z,38.03
2019-02-15T08:07:48.795Z,31.60
2019-02-15T08:10:18.209Z,36.50
2019-02-15T08:12:47.628Z,33.90
2019-02-15T08:15:16.982Z,36.87
2019-02-15T08:17:46.467Z,34.10
2019-02-15T08:20:15.866Z,35.87
2019-02-15T08:22:45.244Z,33.43
2019-02-15T08:25:19.055Z,34.43
2019-02-15T08:27:53.099Z,34.20
2019-02-15T08:30:22.609Z,37.17
2019-02-15T08:32:52.036Z,41.27
2019-02-15T08:35:21.372Z,42.90
2019-02-15T08:37:50.741Z,57.60
2019-02-15T08:40:20.079Z,42.67
2019-02-15T08:42:49.893Z,45.93
2019-02-15T08:45:20.028Z,38.53
2019-02-15T08:47:49.405Z,42.60
2019-02-15T08:50:20.256Z,51.77
2019-02-15T08:52:49.621Z,33.87
2019-02-15T08:55:18.949Z,39.23
2019-02-15T08:57:48.329Z,90.57
2019-02-15T09:00:17.664Z,36.07
2019-02-15T09:02:48.218Z,38.77
2019-02-15T09:05:17.549Z,34.20
2019-02-15T09:07:46.913Z,42.70
2019-02-15T09:10:16.285Z,39.97
2019-02-15T09:12:45.628Z,37.87
2019-02-15T09:15:17.989Z,38.03
2019-02-15T09:17:47.342Z,50.70
2019-02-15T09:20:16.890Z,38.23
2019-02-15T09:22:46.236Z,39.03
2019-02-15T09:25:15.607Z,37.63
2019-02-15T09:27:46.583Z,38.70
2019-02-15T09:30:15.955Z,38.87
2019-02-15T09:32:45.287Z,40.73
2019-02-15T09:35:14.656Z,32.87
2019-02-15T09:37:43.996Z,35.50
2019-02-15T09:40:13.377Z,35.37
2019-02-15T09:42:42.720Z,36.80
2019-02-15T09:45:12.537Z,41.20
2019-02-15T09:47:41.871Z,35.93
2019-02-15T09:50:12.219Z,38.97
2019-02-15T09:52:41.822Z,48.27
2019-02-15T09:55:11.186Z,43.87
2019-02-15T09:57:40.525Z,41.07
2019-02-15T10:00:10.741Z,46.90
2019-02-15T10:02:40.066Z,59.57
2019-02-15T10:05:10.878Z,56.20
2019-02-15T10:07:40.218Z,56.70
2019-02-15T10:10:10.235Z,55.63
2019-02-15T10:12:39.576Z,55.33
2019-02-15T10:15:11.238Z,70.83
2019-02-15T10:17:40.571Z,57.13
2019-02-15T10:20:09.941Z,50.70
2019-02-15T10:22:39.272Z,66.97
2019-02-15T10:25:09.382Z,59.37
2019-02-15T10:27:38.729Z,60.83
2019-02-15T10:30:10.540Z,57.70
2019-02-15T10:32:39.909Z,56.27
2019-02-15T10:35:10.974Z,59.23
2019-02-15T10:37:40.320Z,54.63
2019-02-15T10:40:11.640Z,49.23
2019-02-15T10:42:40.972Z,50.53
2019-02-15T10:45:15.112Z,51.73
2019-02-15T10:47:44.495Z,47.40
2019-02-15T10:50:13.863Z,45.37
2019-02-15T10:52:43.199Z,51.07
2019-02-15T10:55:12.581Z,43.43
2019-02-15T10:57:41.911Z,47.93
2019-02-15T11:00:21.766Z,43.40
2019-02-15T11:02:51.169Z,45.40
2019-02-15T11:05:20.939Z,49.57
2019-02-15T11:07:50.281Z,50.67
2019-02-15T11:10:19.978Z,55.07
2019-02-15T11:12:49.322Z,115.03
2019-02-15T11:15:18.781Z,47.73
2019-02-15T11:17:48.187Z,52.23
2019-02-15T11:20:17.790Z,54.20
2019-02-15T11:22:47.158Z,46.97
2019-02-15T11:25:16.565Z,54.60
2019-02-15T11:27:45.959Z,42.73
2019-02-15T11:30:16.135Z,44.87
2019-02-15T11:32:45.517Z,44.73
2019-02-15T11:35:17.660Z,50.20
2019-02-15T11:37:47.441Z,47.57
2019-02-15T11:40:16.785Z,49.53
2019-02-15T11:42:46.184Z,47.87
2019-02-15T11:45:16.090Z,50.73
2019-02-15T11:47:45.473Z,56.73
2019-02-15T11:50:15.588Z,52.80
2019-02-15T11:52:44.962Z,51.50
2019-02-15T11:55:14.298Z,53.83
2019-02-15T11:57:43.675Z,47.40
2019-02-15T12:00:18.414Z,47.83
2019-02-15T12:02:48.087Z,51.50
2019-02-15T12:05:17.413Z,45.27
2019-02-15T12:07:46.762Z,49.30
2019-02-15T12:10:16.098Z,51.30
2019-02-15T12:12:45.480Z,56.90
2019-02-15T12:15:14.813Z,54.20
2019-02-15T12:17:44.176Z,46.90
2019-02-15T12:20:14.782Z,48.97
2019-02-15T12:22:44.108Z,44.27
2019-02-15T12:25:13.475Z,52.47
2019-02-15T12:27:42.814Z,56.53
2019-02-15T12:30:14.277Z,55.57
2019-02-15T12:32:43.623Z,82.37
2019-02-15T12:35:12.993Z,60.20
2019-02-15T12:37:42.320Z,53.93
2019-02-15T12:40:12.059Z,77.50
2019-02-15T12:42:41.561Z,68.83
2019-02-15T12:45:12.983Z,69.93
2019-02-15T12:47:42.315Z,70.53
2019-02-15T12:50:16.865Z,55.40
2019-02-15T12:52:46.198Z,59.80
2019-02-15T12:55:15.563Z,55.70
2019-02-15T12:57:44.891Z,51.47
2019-02-15T13:00:15.491Z,57.37
2019-02-15T13:02:44.847Z,62.70
2019-02-15T13:05:14.708Z,61.67
2019-02-15T13:07:44.116Z,63.93
2019-02-15T13:10:15.197Z,56.93
2019-02-15T13:12:44.531Z,66.47
2019-02-15T13:15:13.960Z,75.27
2019-02-15T13:17:43.320Z,64.53
2019-02-15T13:20:12.701Z,60.70
2019-02-15T13:22:42.054Z,61.93
2019-02-15T13:25:11.433Z,67.60
2019-02-15T13:27:40.765Z,66.70
2019-02-15T13:30:12.075Z,76.63
2019-02-15T13:32:41.686Z,66.20
2019-02-15T13:35:13.858Z,70.00
2019-02-15T13:37:43.195Z,73.83
2019-02-15T13:40:12.590Z,70.23
2019-02-15T13:42:41.968Z,75.30
2019-02-15T13:45:12.543Z,66.43
2019-02-15T13:47:41.934Z,64.57
2019-02-15T13:50:13.272Z,67.13
2019-02-15T13:52:42.651Z,66.97
2019-02-15T13:55:11.993Z,64.27
2019-02-15T13:57:41.367Z,61.20
2019-02-15T14:00:12.542Z,77.77
2019-02-15T14:02:41.917Z,64.33
2019-02-15T14:05:12.080Z,55.90
2019-02-15T14:07:41.483Z,68.50
2019-02-15T14:10:14.498Z,59.63
2019-02-15T14:12:43.891Z,65.03
2019-02-15T14:15:13.290Z,73.47
2019-02-15T14:17:46.330Z,71.77
2019-02-15T14:20:16.639Z,67.10
2019-02-15T14:22:46.021Z,229.73
2019-02-15T14:25:15.372Z,127.20
2019-02-15T14:27:44.746Z,102.47
2019-02-15T14:30:14.532Z,96.00
2019-02-15T14:32:43.898Z,62.03
2019-02-15T14:35:14.065Z,64.27
2019-02-15T14:37:43.445Z,79.73
2019-02-15T14:40:16.199Z,84.40
2019-02-15T14:42:45.562Z,88.93
2019-02-15T14:45:14.974Z,117.27
2019-02-15T14:47:53.912Z,162.00
2019-02-15T14:50:15.373Z,83.00
2019-02-15T14:52:44.756Z,239.47
2019-02-15T14:55:14.086Z,115.67
2019-02-15T14:57:43.459Z,95.70
2019-02-15T15:00:13.636Z,254.40
2019-02-15T15:02:43.003Z,158.57
2019-02-15T15:05:15.288Z,154.00
2019-02-15T15:07:44.658Z,274.47
2019-02-15T15:10:14.008Z,273.97
2019-02-15T15:12:43.373Z,152.17
2019-02-15T15:15:14.618Z,110.43
2019-02-15T15:17:44.000Z,108.90
2019-02-15T15:20:13.611Z,465.87
2019-02-15T15:22:42.989Z,294.63
2019-02-15T15:25:13.470Z,167.00
2019-02-15T15:27:42.844Z,120.53
2019-02-15T15:30:15.886Z,142.97
2019-02-15T15:32:45.252Z,151.93
2019-02-15T15:35:14.587Z,209.57
2019-02-15T15:37:43.957Z,208.40
2019-02-15T15:40:14.533Z,121.60
2019-02-15T15:42:43.902Z,85.00
2019-02-15T15:45:13.346Z,213.27
2019-02-15T15:47:42.742Z,220.47
2019-02-15T15:50:12.428Z,153.57
2019-02-15T15:52:41.791Z,387.07
2019-02-15T15:55:12.177Z,228.03
2019-02-15T15:57:41.554Z,134.30
2019-02-15T16:00:15.459Z,89.77
2019-02-15T16:02:44.823Z,128.93
2019-02-15T16:05:14.162Z,161.80
2019-02-15T16:07:43.955Z,164.17
2019-02-15T16:10:14.291Z,170.50
2019-02-15T16:12:43.654Z,156.03
2019-02-15T16:15:13.645Z,137.17
2019-02-15T16:17:43.018Z,117.00
2019-02-15T16:20:13.105Z,256.00
2019-02-15T16:22:42.497Z,204.47
2019-02-15T16:25:11.826Z,190.17
2019-02-15T16:27:43.411Z,180.57
2019-02-15T16:30:15.767Z,154.77
2019-02-15T16:32:45.131Z,191.97
2019-02-15T16:35:14.486Z,187.70
2019-02-15T16:37:43.871Z,174.73
2019-02-15T16:40:15.204Z,176.67
2019-02-15T16:42:44.585Z,167.77
2019-02-15T16:45:16.830Z,156.97
2019-02-15T16:47:46.189Z,146.40
2019-02-15T16:50:15.526Z,142.70
2019-02-15T16:52:44.987Z,152.47
2019-02-15T16:55:14.366Z,190.00
2019-02-15T16:57:43.697Z,227.07
2019-02-15T17:00:13.584Z,217.97
2019-02-15T17:02:42.973Z,209.27
2019-02-15T17:05:12.622Z,200.97
2019-02-15T17:07:41.947Z,193.53
2019-02-15T17:10:11.487Z,202.00
2019-02-15T17:12:40.820Z,211.03
2019-02-15T17:15:16.149Z,189.17
2019-02-15T17:17:45.558Z,178.80
2019-02-15T17:20:14.919Z,192.40
2019-02-15T17:22:44.302Z,199.37
2019-02-15T17:25:13.633Z,203.17
2019-02-15T17:27:42.974Z,197.77
2019-02-15T17:30:12.511Z,188.27
2019-02-15T17:32:41.853Z,192.97
2019-02-15T17:35:11.676Z,189.37
2019-02-15T17:37:41.001Z,196.07
2019-02-15T17:40:16.831Z,197.83
2019-02-15T17:42:46.169Z,183.53
2019-02-15T17:45:15.547Z,181.70
2019-02-15T17:47:44.878Z,181.87
2019-02-15T17:50:14.252Z,182.57
2019-02-15T17:52:43.587Z,171.43
2019-02-15T17:55:14.044Z,204.60
2019-02-15T17:57:43.416Z,193.43
2019-02-15T18:00:13.729Z,199.57
2019-02-15T18:02:43.078Z,202.10
2019-02-15T18:05:18.220Z,202.27
2019-02-15T18:07:49.655Z,208.57
2019-02-15T18:10:19.023Z,203.43
2019-02-15T18:12:48.652Z,177.57
2019-02-15T18:15:18.005Z,179.60
2019-02-15T18:17:47.341Z,179.73
2019-02-15T18:20:17.759Z,173.37
2019-02-15T18:22:47.103Z,179.67
2019-02-15T18:25:16.472Z,168.43
2019-02-15T18:27:45.815Z,329.03
2019-02-15T18:30:16.336Z,514.80
2019-02-15T18:32:45.680Z,272.03
2019-02-15T18:35:15.071Z,205.03
2019-02-15T18:37:44.395Z,195.33
2019-02-15T18:40:13.779Z,195.17
2019-02-15T18:42:43.117Z,202.53
2019-02-15T18:45:14.227Z,220.90
2019-02-15T18:47:43.565Z,187.27
2019-02-15T18:50:12.931Z,155.27
2019-02-15T18:52:42.289Z,163.67
2019-02-15T18:55:11.990Z,222.13
2019-02-15T18:57:41.334Z,154.10
2019-02-15T19:00:15.925Z,226.20
2019-02-15T19:02:49.608Z,130.33
2019-02-15T19:05:18.978Z,161.43
2019-02-15T19:07:48.314Z,197.30
2019-02-15T19:10:22.683Z,157.97
2019-02-15T19:12:52.200Z,175.67
2019-02-15T19:15:21.960Z,139.40
2019-02-15T19:17:51.298Z,104.87
2019-02-15T19:20:20.702Z,78.63
2019-02-15T19:22:50.030Z,91.33
2019-02-15T19:25:20.533Z,112.83
2019-02-15T19:27:49.868Z,98.17
2019-02-15T19:30:28.242Z,90.47
2019-02-15T19:32:57.570Z,95.33
2019-02-15T19:35:27.424Z,66.00
2019-02-15T19:37:56.766Z,75.40
2019-02-15T19:40:26.130Z,94.23
2019-02-15T19:42:59.115Z,143.87
2019-02-15T19:45:28.493Z,172.40
2019-02-15T19:47:58.436Z,159.77
2019-02-15T19:50:27.885Z,187.37
2019-02-15T19:52:57.230Z,231.53
2019-02-15T19:55:26.601Z,261.63
2019-02-15T19:57:56.116Z,262.30
2019-02-15T20:00:25.496Z,265.23
2019-02-15T20:02:54.838Z,264.63
2019-02-15T20:05:24.359Z,268.43
2019-02-15T20:07:53.703Z,253.07
2019-02-15T20:10:23.954Z,269.40
2019-02-15T20:12:53.295Z,212.17
2019-02-15T20:15:22.667Z,491.37
2019-02-15T20:17:52.006Z,202.63
2019-02-15T20:20:21.386Z,231.87
2019-02-15T20:22:50.724Z,353.87
2019-02-15T20:25:22.418Z,223.63
2019-02-15T20:27:51.755Z,220.03
2019-02-15T20:30:24.111Z,183.07
2019-02-15T20:32:53.450Z,207.10
2019-02-15T20:35:22.828Z,204.87
2019-02-15T20:37:52.608Z,276.83
2019-02-15T20:40:22.616Z,192.13
2019-02-15T20:42:52.612Z,186.40
2019-02-15T20:45:23.573Z,194.53
2019-02-15T20:47:53.155Z,200.47
2019-02-15T20:50:22.466Z,183.27
2019-02-15T20:52:51.841Z,675.03
2019-02-15T20:55:21.187Z,440.87
2019-02-15T20:57:52.631Z,431.77
2019-02-15T21:00:24.824Z,222.50
2019-02-15T21:02:54.665Z,263.33
2019-02-15T21:05:24.045Z,224.73
2019-02-15T21:07:53.879Z,254.23
2019-02-15T21:10:23.399Z,229.70
2019-02-15T21:12:52.764Z,200.00
2019-02-15T21:15:24.186Z,278.90
2019-02-15T21:17:53.180Z,182.10
2019-02-15T21:20:24.618Z,156.20
2019-02-15T21:22:54.629Z,146.17
2019-02-15T21:25:24.023Z,555.00
2019-02-15T21:27:55.694Z,170.07
2019-02-15T21:30:25.043Z,216.87
2019-02-15T21:32:54.682Z,164.20
2019-02-15T21:35:23.983Z,238.47
2019-02-15T21:37:53.824Z,147.67
2019-02-15T21:40:23.387Z,122.07
2019-02-15T21:42:52.745Z,117.13
2019-02-15T21:45:22.080Z,113.10
2019-02-15T21:47:51.454Z,95.63
2019-02-15T21:50:20.795Z,89.67
2019-02-15T21:52:50.151Z,61.93
2019-02-15T21:55:19.481Z,69.43
2019-02-15T21:57:48.842Z,59.10
2019-02-15T22:00:23.152Z,48.73
2019-02-15T22:02:52.611Z,260.67
2019-02-15T22:05:21.953Z,78.80
2019-02-15T22:07:51.313Z,62.90
2019-02-15T22:10:20.645Z,45.33
2019-02-15T22:12:50.005Z,49.30
2019-02-15T22:15:19.341Z,51.03
2019-02-15T22:17:48.697Z,44.77
2019-02-15T22:20:26.336Z,46.13
2019-02-15T22:22:49.257Z,42.17
2019-02-15T22:25:18.657Z,40.83
2019-02-15T22:27:48.287Z,41.90
2019-02-15T22:30:18.664Z,47.13
2019-02-15T22:32:48.218Z,90.03
2019-02-15T22:35:17.542Z,69.67
2019-02-15T22:37:46.912Z,48.20
2019-02-15T22:40:36.091Z,47.67
2019-02-15T22:43:11.067Z,42.90
2019-02-15T22:45:40.400Z,260.40
2019-02-15T22:48:09.789Z,101.13
2019-02-15T22:50:39.202Z,58.97
2019-02-15T22:53:08.836Z,39.80
2019-02-15T22:55:38.304Z,43.63
2019-02-15T22:58:07.689Z,46.13
2019-02-15T23:00:55.859Z,52.53
2019-02-15T23:03:26.811Z,50.80
2019-02-15T23:05:56.264Z,50.27
2019-02-15T23:08:25.748Z,58.70
2019-02-15T23:10:55.160Z,66.27
2019-02-15T23:13:24.525Z,63.63
2019-02-15T23:15:53.863Z,62.13
2019-02-15T23:18:23.874Z,81.53
2019-02-15T23:20:53.206Z,74.20
2019-02-15T23:23:22.624Z,81.80
2019-02-15T23:25:51.975Z,71.17
2019-02-15T23:28:21.385Z,66.27
2019-02-15T23:30:50.719Z,67.80
2019-02-15T23:33:20.175Z,106.17
2019-02-15T23:35:49.563Z,74.27
2019-02-15T23:38:18.942Z,174.03
2019-02-15T23:40:48.306Z,145.10
2019-02-15T23:43:17.708Z,110.93
2019-02-15T23:45:47.120Z,91.03
2019-02-15T23:48:16.506Z,77.07
2019-02-15T23:50:54.256Z,84.03
2019-02-15T23:53:16.961Z,83.20
2019-02-15T23:55:46.321Z,76.40
2019-02-15T23:58:15.657Z,69.87
